Sagittarian — WCY5210 — position and weather

sailwx.info

Track history (hours):
 
Tides and Currents Weather Stations Pressure Air Temp Water Temp Dewpoint Dewpoint Depression Visibility Wind Speed Wind Dir Waves Ship Positions

Sagittarian

Owner: TAURUS MARINE, SAN FRANCISCO, CA. More information available from US FCC via Universal Licensing System and Coast Guard Vessel Documentation Center.

Last reported at 2015-Aug-31 21:33 UTC. Time now 2015-Aug-31 21:48 UTC.
Position N 37°49' W 122°25'.

; draft 3 m.

Type: Towing. MMSI: 366969510.

Date/timePositionNaut miles runAvg speedWind from/ knotsBaromVisibWave heightAir tempDewpointWater temp
2015-Aug-31 21:33N 37°49' W 122°25'0 0.0
2015-Aug-31 20:33N 37°49' W 122°25'0 0.0
2015-Aug-31 19:33N 37°49' W 122°25'0 0.0
2015-Aug-31 18:33N 37°49' W 122°25'2 2.4
2015-Aug-31 17:33N 37°47' W 122°23'0 0.0
2015-Aug-30 13:06N 37°46' W 122°23'4 6.8
2015-Aug-30 12:34N 37°49' W 122°20'1 0.5
2015-Aug-30 11:34N 37°49' W 122°19'4 4.2
2015-Aug-30 10:34N 37°46' W 122°23'0 0.0
2015-Aug-29 18:33N 37°46' W 122°23'2 2.3
2015-Aug-29 17:34N 37°48' W 122°21'1 0.6
2015-Aug-29 16:33N 37°49' W 122°21'0 0.0
2015-Aug-29 15:33N 37°49' W 122°21'0 0.0
2015-Aug-29 14:33N 37°49' W 122°21'0 0.0
2015-Aug-29 13:33N 37°49' W 122°21'0 0.2
2015-Aug-29 12:34N 37°49' W 122°21'3 0.2
2015-Aug-28 19:08N 37°46' W 122°23'0 0.0
2015-Aug-28 18:33N 37°46' W 122°23'0 0.0
2015-Aug-28 17:33N 37°46' W 122°23'0 0.0
2015-Aug-28 16:33N 37°46' W 122°23'0 0.0
2015-Aug-27 12:11N 37°46' W 122°23'0 0.2
2015-Aug-27 11:33N 37°46' W 122°23'0 0.0
2015-Aug-26 10:05N 37°46' W 122°23'3 5.6
2015-Aug-26 09:33N 37°49' W 122°23'1110.6
2015-Aug-26 08:31N 38°01' W 122°24'1110.4
2015-Aug-26 07:30N 38°03' W 122°10'3 3.4
2015-Aug-26 06:28N 38°03' W 122°06'6 7.0
2015-Aug-26 05:33N 38°04' W 122°14'1 0.1
2015-Aug-25 08:05N 38°05' W 122°15'610.4
2015-Aug-25 07:33N 38°02' W 122°09'2 1.9
2015-Aug-25 06:32N 38°03' W 122°06'4 3.7
2015-Aug-25 05:33N 38°03' W 122°11'7 7.1
2015-Aug-25 04:33N 38°03' W 122°20'7 6.9
2015-Aug-25 03:33N 37°57' W 122°26'4 3.7
2015-Aug-25 02:33N 37°54' W 122°25'7 7.4
2015-Aug-25 01:33N 37°46' W 122°23'0 0.0
2015-Aug-24 10:33N 37°47' W 122°23'0 0.0
2015-Aug-23 17:22N 37°46' W 122°23'3 3.5
2015-Aug-23 16:33N 37°49' W 122°21'7 7.5
2015-Aug-23 15:33N 37°55' W 122°26'1 1.1
2015-Aug-23 14:34N 37°55' W 122°25'9 8.9
2015-Aug-23 13:33N 37°46' W 122°23'0 0.0
2015-Aug-22 22:27N 37°46' W 122°23'7 7.5
2015-Aug-22 21:33N 37°53' W 122°24'2 2.4
2015-Aug-22 20:34N 37°55' W 122°25'6 5.7
2015-Aug-22 19:34N 37°50' W 122°23'  
Track history (hours):
 
Tides and Currents Weather Stations Pressure Air Temp Water Temp Dewpoint Dewpoint Depression Visibility Wind Speed Wind Dir Waves Ship Positions

Sagittarian

Owner: TAURUS MARINE, SAN FRANCISCO, CA. More information available from US FCC via Universal Licensing System and Coast Guard Vessel Documentation Center.

Last reported at 2015-Aug-31 21:33 UTC. Time now 2015-Aug-31 21:48 UTC.
Position N 37°49' W 122°25'.

; draft 3 m.

Type: Towing. MMSI: 366969510.

Date/timePositionNaut miles runAvg speedWind from/ knotsBaromVisibWave heightAir tempDewpointWater temp
2015-Aug-31 21:33N 37°49' W 122°25'0 0.0
2015-Aug-31 20:33N 37°49' W 122°25'0 0.0
2015-Aug-31 19:33N 37°49' W 122°25'0 0.0
2015-Aug-31 18:33N 37°49' W 122°25'2 2.4
2015-Aug-31 17:33N 37°47' W 122°23'0 0.0
2015-Aug-30 13:06N 37°46' W 122°23'4 6.8
2015-Aug-30 12:34N 37°49' W 122°20'1 0.5
2015-Aug-30 11:34N 37°49' W 122°19'4 4.2
2015-Aug-30 10:34N 37°46' W 122°23'0 0.0
2015-Aug-29 18:33N 37°46' W 122°23'2 2.3
2015-Aug-29 17:34N 37°48' W 122°21'1 0.6
2015-Aug-29 16:33N 37°49' W 122°21'0 0.0
2015-Aug-29 15:33N 37°49' W 122°21'0 0.0
2015-Aug-29 14:33N 37°49' W 122°21'0 0.0
2015-Aug-29 13:33N 37°49' W 122°21'0 0.2
2015-Aug-29 12:34N 37°49' W 122°21'3 0.2
2015-Aug-28 19:08N 37°46' W 122°23'0 0.0
2015-Aug-28 18:33N 37°46' W 122°23'0 0.0
2015-Aug-28 17:33N 37°46' W 122°23'0 0.0
2015-Aug-28 16:33N 37°46' W 122°23'0 0.0
2015-Aug-27 12:11N 37°46' W 122°23'0 0.2
2015-Aug-27 11:33N 37°46' W 122°23'0 0.0
2015-Aug-26 10:05N 37°46' W 122°23'3 5.6
2015-Aug-26 09:33N 37°49' W 122°23'1110.6
2015-Aug-26 08:31N 38°01' W 122°24'1110.4
2015-Aug-26 07:30N 38°03' W 122°10'3 3.4
2015-Aug-26 06:28N 38°03' W 122°06'6 7.0
2015-Aug-26 05:33N 38°04' W 122°14'1 0.1
2015-Aug-25 08:05N 38°05' W 122°15'610.4
2015-Aug-25 07:33N 38°02' W 122°09'2 1.9
2015-Aug-25 06:32N 38°03' W 122°06'4 3.7
2015-Aug-25 05:33N 38°03' W 122°11'7 7.1
2015-Aug-25 04:33N 38°03' W 122°20'7 6.9
2015-Aug-25 03:33N 37°57' W 122°26'4 3.7
2015-Aug-25 02:33N 37°54' W 122°25'7 7.4
2015-Aug-25 01:33N 37°46' W 122°23'0 0.0
2015-Aug-24 10:33N 37°47' W 122°23'0 0.0
2015-Aug-23 17:22N 37°46' W 122°23'3 3.5
2015-Aug-23 16:33N 37°49' W 122°21'7 7.5
2015-Aug-23 15:33N 37°55' W 122°26'1 1.1
2015-Aug-23 14:34N 37°55' W 122°25'9 8.9
2015-Aug-23 13:33N 37°46' W 122°23'0 0.0
2015-Aug-22 22:27N 37°46' W 122°23'7 7.5
2015-Aug-22 21:33N 37°53' W 122°24'2 2.4
2015-Aug-22 20:34N 37°55' W 122°25'6 5.7
2015-Aug-22 19:34N 37°50' W 122°23'  

Dump ship's entire track history